Saint Simons Island, GA

4:09 AM EST on January 17, 2017 (GMT -0500)
McKinnon | | Change Station

Elev 20 ft 31.15 °N, 81.39 °W | Updated 16 minutes ago

Fog
Fog
58 °F
Feels Like 58 °F
N
0
Wind Variable Wind from North

Today
High -- | Low -- °F
--% Chance of Precip.
Yesterday
High -- | Low -- °F
Precip. -- in
Pressure 30.24 in
Visibility 0.2 miles
Clouds
Dew Point 58 °F
Humidity 100%
Rainfall 0.00 in
Snow Depth Not available.
7:24 AM 5:47 PM
Waning Gibbous, 74% visible
METAR KSSI 170853Z AUTO 00000KT 1/4SM FG VV002 14/14 A3024 RMK AO2 SLP240 T01440144 58007
Pressure 30.24 in
Visibility 0.2 miles
Clouds
Dew Point 58 °F
Humidity 100%
Rainfall 0.00 in
Snow Depth Not available.
7:24 AM 5:47 PM
Waning Gibbous, 74% visible
METAR KSSI 170853Z AUTO 00000KT 1/4SM FG VV002 14/14 A3024 RMK AO2 SLP240 T01440144 58007

Get Your Daily Forecast Email!

Thanks for signing up!

Be on the lookout for a verification email in your inbox.

You'll start receiving the daily forecast at 8 AM.

×

10-Day Weather Forecast

Almanac

Astronomy

Jan. 17, 2017 Rise Set
Actual Time
Civil Twilight
Nautical Twilight
Astronomical Twilight
Moon
Length of Visible Light
Length of Day
Tomorrow will be .
, % of the Moon is Illuminated

Today's Extremes

State Highs State Lows

Community

WunderPhotos

Upload Photos

1,962,540 photos uploaded!

WunderBlog® & News

Nearby

Air Quality

  Air Quality AQ Index Pollutant
Not available.

Snow Depth

Station Depth Elevation

Earthquake Activity

City Distance Mag. Time & Date
Minimum magnitude displayed is 2.5.

Coastal Water Temperatures

Place Temperature

Stations

Nearby Weather Stations

Station Location Temp. Windchill Dew Point Humidity Wind Precip. Elev Updated Type
                   

Watches & Warnings

Dense Fog Advisory
Issued: 2:23 AM EST Jan. 17, 2017 – National Weather Service

... Dense fog advisory remains in effect until 9 am EST this
morning...

* visibility... less than one quarter mile.

* Impacts... drivers should exercise caution.

Precautionary/preparedness actions...

A dense fog advisory means visibilities will frequently be
reduced to less than one quarter mile. If driving... slow down...
use your low beam headlights... and leave plenty of distance
ahead of you.



Nelson



Marine Fog Advisory
Issued: 5:53 PM EST Jan. 16, 2017 – National Weather Service

... Dense fog advisory in effect until 9 am EST Tuesday...

The National Weather Service in Jacksonville has issued a dense
fog advisory... which is in effect until 9 am EST Tuesday.

* Visibility... less than one mile.

Precautionary/preparedness actions...

A dense fog advisory means visibilities will frequently be
reduced to less than one mile. Inexperienced mariners, especially
those operating smaller vessels should avoid navigating in these
conditions.